sensor_id;sensor_type;location;lat;lon;timestamp;temperature;humidity
41262;DHT22;29629;52.532;13.352;2024-01-07T00:00:30;0.50;99.90
41262;DHT22;29629;52.532;13.352;2024-01-07T00:02:57;0.60;99.90
41262;DHT22;29629;52.532;13.352;2024-01-07T00:05:26;0.50;99.90
41262;DHT22;29629;52.532;13.352;2024-01-07T00:07:53;0.50;99.90
41262;DHT22;29629;52.532;13.352;2024-01-07T00:10:20;0.40;99.90
41262;DHT22;29629;52.532;13.352;2024-01-07T00:12:46;0.50;99.90
41262;DHT22;29629;52.532;13.352;2024-01-07T00:15:14;0.50;99.90
41262;DHT22;29629;52.532;13.352;2024-01-07T00:17:40;0.50;99.90
41262;DHT22;29629;52.532;13.352;2024-01-07T00:20:08;0.50;99.90
41262;DHT22;29629;52.532;13.352;2024-01-07T00:22:37;0.40;99.90
41262;DHT22;29629;52.532;13.352;2024-01-07T00:25:04;0.40;99.90
41262;DHT22;29629;52.532;13.352;2024-01-07T00:27:31;0.30;99.90
41262;DHT22;29629;52.532;13.352;2024-01-07T00:29:58;0.40;99.90
41262;DHT22;29629;52.532;13.352;2024-01-07T00:32:25;0.40;99.90
41262;DHT22;29629;52.532;13.352;2024-01-07T00:34:52;0.40;99.90
41262;DHT22;29629;52.532;13.352;2024-01-07T00:37:19;0.40;99.90
41262;DHT22;29629;52.532;13.352;2024-01-07T00:39:47;0.40;99.90
41262;DHT22;29629;52.532;13.352;2024-01-07T00:42:14;0.30;99.90
41262;DHT22;29629;52.532;13.352;2024-01-07T00:44:41;0.30;99.90
41262;DHT22;29629;52.532;13.352;2024-01-07T00:47:08;0.30;99.90
41262;DHT22;29629;52.532;13.352;2024-01-07T00:49:35;0.30;99.90
41262;DHT22;29629;52.532;13.352;2024-01-07T00:52:02;0.30;99.90
41262;DHT22;29629;52.532;13.352;2024-01-07T00:54:29;0.20;99.90
41262;DHT22;29629;52.532;13.352;2024-01-07T00:56:57;0.20;99.90
41262;DHT22;29629;52.532;13.352;2024-01-07T00:59:24;0.20;99.90
41262;DHT22;29629;52.532;13.352;2024-01-07T01:01:51;0.20;99.90
41262;DHT22;29629;52.532;13.352;2024-01-07T01:04:18;0.20;99.90
41262;DHT22;29629;52.532;13.352;2024-01-07T01:06:45;0.10;99.90
41262;DHT22;29629;52.532;13.352;2024-01-07T01:09:12;0.10;99.90
41262;DHT22;29629;52.532;13.352;2024-01-07T01:11:39;0.00;99.90
41262;DHT22;29629;52.532;13.352;2024-01-07T01:14:07;0.10;99.90
41262;DHT22;29629;52.532;13.352;2024-01-07T01:16:34;0.00;99.90
41262;DHT22;29629;52.532;13.352;2024-01-07T01:19:01;-0.10;99.90
41262;DHT22;29629;52.532;13.352;2024-01-07T01:21:28;-0.10;99.90
41262;DHT22;29629;52.532;13.352;2024-01-07T01:23:55;0.00;99.90
41262;DHT22;29629;52.532;13.352;2024-01-07T01:26:22;-0.10;99.90
41262;DHT22;29629;52.532;13.352;2024-01-07T01:28:49;-0.10;99.90
41262;DHT22;29629;52.532;13.352;2024-01-07T01:31:17;0.00;99.90
41262;DHT22;29629;52.532;13.352;2024-01-07T01:33:44;-0.10;99.90
41262;DHT22;29629;52.532;13.352;2024-01-07T01:36:11;-0.10;99.90
41262;DHT22;29629;52.532;13.352;2024-01-07T01:38:38;-0.20;99.90
41262;DHT22;29629;52.532;13.352;2024-01-07T01:41:05;-0.20;99.90
41262;DHT22;29629;52.532;13.352;2024-01-07T01:43:32;-0.20;99.90
41262;DHT22;29629;52.532;13.352;2024-01-07T01:45:59;-0.20;99.90
41262;DHT22;29629;52.532;13.352;2024-01-07T01:48:27;-0.20;99.90
41262;DHT22;29629;52.532;13.352;2024-01-07T01:50:55;-0.20;99.90
41262;DHT22;29629;52.532;13.352;2024-01-07T01:53:24;-0.40;99.90
41262;DHT22;29629;52.532;13.352;2024-01-07T01:55:51;-0.30;99.90
41262;DHT22;29629;52.532;13.352;2024-01-07T01:58:19;-0.40;99.90
41262;DHT22;29629;52.532;13.352;2024-01-07T02:00:47;-0.30;99.90
41262;DHT22;29629;52.532;13.352;2024-01-07T02:03:16;-0.40;99.90
41262;DHT22;29629;52.532;13.352;2024-01-07T02:05:45;-0.30;99.90
41262;DHT22;29629;52.532;13.352;2024-01-07T02:08:12;-0.50;99.90
41262;DHT22;29629;52.532;13.352;2024-01-07T02:10:38;-0.40;99.90
41262;DHT22;29629;52.532;13.352;2024-01-07T02:13:06;-0.40;99.90
41262;DHT22;29629;52.532;13.352;2024-01-07T02:15:33;-0.40;99.90
41262;DHT22;29629;52.532;13.352;2024-01-07T02:18:00;-0.30;99.90
41262;DHT22;29629;52.532;13.352;2024-01-07T02:20:27;-0.40;99.90
41262;DHT22;29629;52.532;13.352;2024-01-07T02:22:55;-0.50;99.90
41262;DHT22;29629;52.532;13.352;2024-01-07T02:25:24;-0.50;99.90
41262;DHT22;29629;52.532;13.352;2024-01-07T02:27:51;-0.50;99.90
41262;DHT22;29629;52.532;13.352;2024-01-07T02:30:18;-0.50;99.90
41262;DHT22;29629;52.532;13.352;2024-01-07T02:32:45;-0.40;99.90
41262;DHT22;29629;52.532;13.352;2024-01-07T02:35:12;-0.50;99.90
41262;DHT22;29629;52.532;13.352;2024-01-07T02:37:39;-0.60;99.90
41262;DHT22;29629;52.532;13.352;2024-01-07T02:40:07;-0.60;99.90
41262;DHT22;29629;52.532;13.352;2024-01-07T02:42:35;-0.60;99.90
41262;DHT22;29629;52.532;13.352;2024-01-07T02:45:03;-0.70;99.90
41262;DHT22;29629;52.532;13.352;2024-01-07T02:47:30;-0.80;99.90
41262;DHT22;29629;52.532;13.352;2024-01-07T02:49:57;-0.80;99.90
41262;DHT22;29629;52.532;13.352;2024-01-07T02:52:24;-0.80;99.90
41262;DHT22;29629;52.532;13.352;2024-01-07T02:54:51;-0.90;99.90
41262;DHT22;29629;52.532;13.352;2024-01-07T02:57:18;-1.00;99.90
41262;DHT22;29629;52.532;13.352;2024-01-07T02:59:46;-0.90;99.90
41262;DHT22;29629;52.532;13.352;2024-01-07T03:02:13;-0.90;99.90
41262;DHT22;29629;52.532;13.352;2024-01-07T03:04:40;-0.90;99.90
41262;DHT22;29629;52.532;13.352;2024-01-07T03:07:07;-0.90;99.90
41262;DHT22;29629;52.532;13.352;2024-01-07T03:09:35;-0.90;99.90
41262;DHT22;29629;52.532;13.352;2024-01-07T03:12:02;-1.00;99.90
41262;DHT22;29629;52.532;13.352;2024-01-07T03:14:29;-1.10;99.90
41262;DHT22;29629;52.532;13.352;2024-01-07T03:16:57;-1.00;99.90
41262;DHT22;29629;52.532;13.352;2024-01-07T03:19:24;-0.80;99.90
41262;DHT22;29629;52.532;13.352;2024-01-07T03:21:51;-1.10;99.90
41262;DHT22;29629;52.532;13.352;2024-01-07T03:24:18;-1.20;99.90
41262;DHT22;29629;52.532;13.352;2024-01-07T03:26:45;-1.00;99.90
41262;DHT22;29629;52.532;13.352;2024-01-07T03:29:12;-1.00;99.90
41262;DHT22;29629;52.532;13.352;2024-01-07T03:31:39;-1.00;99.90
41262;DHT22;29629;52.532;13.352;2024-01-07T03:34:07;-1.10;99.90
41262;DHT22;29629;52.532;13.352;2024-01-07T03:36:34;-1.10;99.90
41262;DHT22;29629;52.532;13.352;2024-01-07T03:39:01;-1.20;99.90
41262;DHT22;29629;52.532;13.352;2024-01-07T03:41:28;-1.20;99.90
41262;DHT22;29629;52.532;13.352;2024-01-07T03:43:55;-1.20;99.90
41262;DHT22;29629;52.532;13.352;2024-01-07T03:46:22;-1.20;99.90
41262;DHT22;29629;52.532;13.352;2024-01-07T03:48:49;-1.20;99.90
41262;DHT22;29629;52.532;13.352;2024-01-07T03:51:17;-1.30;99.90
41262;DHT22;29629;52.532;13.352;2024-01-07T03:53:44;-1.20;99.90
41262;DHT22;29629;52.532;13.352;2024-01-07T03:56:11;-1.10;99.90
41262;DHT22;29629;52.532;13.352;2024-01-07T03:58:38;-1.20;99.90
41262;DHT22;29629;52.532;13.352;2024-01-07T04:01:05;-1.20;99.90
41262;DHT22;29629;52.532;13.352;2024-01-07T04:03:32;-1.20;99.90
41262;DHT22;29629;52.532;13.352;2024-01-07T04:05:59;-1.30;99.90
41262;DHT22;29629;52.532;13.352;2024-01-07T04:08:27;-1.20;99.90
41262;DHT22;29629;52.532;13.352;2024-01-07T04:10:54;-1.30;99.90
41262;DHT22;29629;52.532;13.352;2024-01-07T04:13:21;-1.20;99.90
41262;DHT22;29629;52.532;13.352;2024-01-07T04:15:48;-1.20;99.90
41262;DHT22;29629;52.532;13.352;2024-01-07T04:18:15;-1.20;99.90
41262;DHT22;29629;52.532;13.352;2024-01-07T04:20:42;-1.30;99.90
41262;DHT22;29629;52.532;13.352;2024-01-07T04:23:09;-1.20;99.90
41262;DHT22;29629;52.532;13.352;2024-01-07T04:25:37;-1.30;99.90
41262;DHT22;29629;52.532;13.352;2024-01-07T04:28:06;-1.30;99.90
41262;DHT22;29629;52.532;13.352;2024-01-07T04:30:33;-1.30;99.90
41262;DHT22;29629;52.532;13.352;2024-01-07T04:33:00;-1.40;99.90
41262;DHT22;29629;52.532;13.352;2024-01-07T04:35:27;-1.30;99.90
41262;DHT22;29629;52.532;13.352;2024-01-07T04:37:54;-1.40;99.90
41262;DHT22;29629;52.532;13.352;2024-01-07T04:40:21;-1.40;99.90
41262;DHT22;29629;52.532;13.352;2024-01-07T04:42:49;-1.40;99.90
41262;DHT22;29629;52.532;13.352;2024-01-07T04:45:16;-1.40;99.90
41262;DHT22;29629;52.532;13.352;2024-01-07T04:47:43;-1.50;99.90
41262;DHT22;29629;52.532;13.352;2024-01-07T04:50:10;-1.40;99.90
41262;DHT22;29629;52.532;13.352;2024-01-07T04:52:37;-1.40;99.90
41262;DHT22;29629;52.532;13.352;2024-01-07T04:55:04;-1.40;99.90
41262;DHT22;29629;52.532;13.352;2024-01-07T04:57:31;-1.40;99.90
41262;DHT22;29629;52.532;13.352;2024-01-07T05:00:00;-1.40;99.90
41262;DHT22;29629;52.532;13.352;2024-01-07T05:02:27;-1.40;99.90
41262;DHT22;29629;52.532;13.352;2024-01-07T05:04:53;-1.40;99.90
41262;DHT22;29629;52.532;13.352;2024-01-07T05:07:21;-1.40;99.90
41262;DHT22;29629;52.532;13.352;2024-01-07T05:09:48;-1.40;99.90
41262;DHT22;29629;52.532;13.352;2024-01-07T05:12:15;-1.40;99.90
41262;DHT22;29629;52.532;13.352;2024-01-07T05:14:42;-1.30;99.90
41262;DHT22;29629;52.532;13.352;2024-01-07T05:17:11;-1.40;99.90
41262;DHT22;29629;52.532;13.352;2024-01-07T05:19:40;-1.30;99.90
41262;DHT22;29629;52.532;13.352;2024-01-07T05:22:07;-1.30;99.90
41262;DHT22;29629;52.532;13.352;2024-01-07T05:24:36;-1.20;99.90
41262;DHT22;29629;52.532;13.352;2024-01-07T05:27:04;-1.20;99.90
41262;DHT22;29629;52.532;13.352;2024-01-07T05:29:31;-1.10;99.90
41262;DHT22;29629;52.532;13.352;2024-01-07T05:31:59;-1.10;99.90
41262;DHT22;29629;52.532;13.352;2024-01-07T05:34:28;-1.10;99.90
41262;DHT22;29629;52.532;13.352;2024-01-07T05:36:55;-1.10;99.90
41262;DHT22;29629;52.532;13.352;2024-01-07T05:39:22;-1.10;99.90
41262;DHT22;29629;52.532;13.352;2024-01-07T05:41:49;-1.00;99.90
41262;DHT22;29629;52.532;13.352;2024-01-07T05:44:16;-1.00;99.90
41262;DHT22;29629;52.532;13.352;2024-01-07T05:46:43;-1.00;99.90
41262;DHT22;29629;52.532;13.352;2024-01-07T05:49:10;-0.90;99.90
41262;DHT22;29629;52.532;13.352;2024-01-07T05:51:40;-0.90;99.90
41262;DHT22;29629;52.532;13.352;2024-01-07T05:54:07;-1.00;99.90
41262;DHT22;29629;52.532;13.352;2024-01-07T05:56:38;-0.90;99.90
41262;DHT22;29629;52.532;13.352;2024-01-07T05:59:05;-0.90;99.90
41262;DHT22;29629;52.532;13.352;2024-01-07T06:01:33;-0.80;99.90
41262;DHT22;29629;52.532;13.352;2024-01-07T06:04:00;-0.80;99.90
41262;DHT22;29629;52.532;13.352;2024-01-07T06:06:27;-0.80;99.90
41262;DHT22;29629;52.532;13.352;2024-01-07T06:08:56;-0.80;99.90
41262;DHT22;29629;52.532;13.352;2024-01-07T06:11:23;-0.70;99.90
41262;DHT22;29629;52.532;13.352;2024-01-07T06:13:50;-0.80;99.90
41262;DHT22;29629;52.532;13.352;2024-01-07T06:16:17;-0.70;99.90
41262;DHT22;29629;52.532;13.352;2024-01-07T06:18:44;-0.70;99.90
41262;DHT22;29629;52.532;13.352;2024-01-07T06:21:11;-0.70;99.90
41262;DHT22;29629;52.532;13.352;2024-01-07T06:23:37;-0.60;99.90
41262;DHT22;29629;52.532;13.352;2024-01-07T06:26:06;-0.60;99.90
41262;DHT22;29629;52.532;13.352;2024-01-07T06:28:33;-0.60;99.90
41262;DHT22;29629;52.532;13.352;2024-01-07T06:31:02;-0.70;99.90
41262;DHT22;29629;52.532;13.352;2024-01-07T06:33:29;-0.70;99.90
41262;DHT22;29629;52.532;13.352;2024-01-07T06:35:56;-0.60;99.90
41262;DHT22;29629;52.532;13.352;2024-01-07T06:38:23;-0.60;99.90
41262;DHT22;29629;52.532;13.352;2024-01-07T06:40:50;-0.70;99.90
41262;DHT22;29629;52.532;13.352;2024-01-07T06:43:21;-0.70;99.90
41262;DHT22;29629;52.532;13.352;2024-01-07T06:45:48;-0.70;99.90
41262;DHT22;29629;52.532;13.352;2024-01-07T06:48:14;-0.60;99.90
41262;DHT22;29629;52.532;13.352;2024-01-07T06:50:41;-0.70;99.90
41262;DHT22;29629;52.532;13.352;2024-01-07T06:53:09;-0.60;99.90
41262;DHT22;29629;52.532;13.352;2024-01-07T06:55:36;-0.70;99.90
41262;DHT22;29629;52.532;13.352;2024-01-07T06:58:03;-0.60;99.90
41262;DHT22;29629;52.532;13.352;2024-01-07T07:00:31;-0.60;99.90
41262;DHT22;29629;52.532;13.352;2024-01-07T07:02:58;-0.60;99.90
41262;DHT22;29629;52.532;13.352;2024-01-07T07:05:25;-0.60;99.90
41262;DHT22;29629;52.532;13.352;2024-01-07T07:07:52;-0.60;99.90
41262;DHT22;29629;52.532;13.352;2024-01-07T07:10:19;-0.60;99.90
41262;DHT22;29629;52.532;13.352;2024-01-07T07:12:46;-0.70;99.90
41262;DHT22;29629;52.532;13.352;2024-01-07T07:15:13;-0.60;99.90
41262;DHT22;29629;52.532;13.352;2024-01-07T07:17:41;-0.70;99.90
41262;DHT22;29629;52.532;13.352;2024-01-07T07:20:09;-0.60;99.90
41262;DHT22;29629;52.532;13.352;2024-01-07T07:22:36;-0.50;99.90
41262;DHT22;29629;52.532;13.352;2024-01-07T07:25:04;-0.50;99.90
41262;DHT22;29629;52.532;13.352;2024-01-07T07:27:32;-0.60;99.90
41262;DHT22;29629;52.532;13.352;2024-01-07T07:29:59;-0.60;99.90
41262;DHT22;29629;52.532;13.352;2024-01-07T07:32:26;-0.60;99.90
41262;DHT22;29629;52.532;13.352;2024-01-07T07:34:54;-0.50;99.90
41262;DHT22;29629;52.532;13.352;2024-01-07T07:37:21;-0.40;99.90
41262;DHT22;29629;52.532;13.352;2024-01-07T07:39:48;-0.50;99.90
41262;DHT22;29629;52.532;13.352;2024-01-07T07:42:15;-0.50;99.90
41262;DHT22;29629;52.532;13.352;2024-01-07T07:44:42;-0.50;99.90
41262;DHT22;29629;52.532;13.352;2024-01-07T07:47:09;-0.40;99.90
41262;DHT22;29629;52.532;13.352;2024-01-07T07:49:37;-0.40;99.90
41262;DHT22;29629;52.532;13.352;2024-01-07T07:52:07;-0.30;99.90
41262;DHT22;29629;52.532;13.352;2024-01-07T07:54:34;-0.40;99.90
41262;DHT22;29629;52.532;13.352;2024-01-07T07:57:01;-0.50;99.90
41262;DHT22;29629;52.532;13.352;2024-01-07T07:59:28;-0.50;99.90
41262;DHT22;29629;52.532;13.352;2024-01-07T08:01:55;-0.40;99.90
41262;DHT22;29629;52.532;13.352;2024-01-07T08:04:22;-0.40;99.90
41262;DHT22;29629;52.532;13.352;2024-01-07T08:06:49;-0.40;99.90
41262;DHT22;29629;52.532;13.352;2024-01-07T08:09:17;-0.20;99.90
41262;DHT22;29629;52.532;13.352;2024-01-07T08:11:44;-0.10;99.90
41262;DHT22;29629;52.532;13.352;2024-01-07T08:14:11;-0.10;99.90
41262;DHT22;29629;52.532;13.352;2024-01-07T08:16:38;-0.10;99.90
41262;DHT22;29629;52.532;13.352;2024-01-07T08:19:05;-0.10;99.90
41262;DHT22;29629;52.532;13.352;2024-01-07T08:21:32;-0.20;99.90
41262;DHT22;29629;52.532;13.352;2024-01-07T08:23:59;-0.10;99.90
41262;DHT22;29629;52.532;13.352;2024-01-07T08:26:27;-0.10;99.90
41262;DHT22;29629;52.532;13.352;2024-01-07T08:28:54;-0.10;99.90
41262;DHT22;29629;52.532;13.352;2024-01-07T08:31:21;0.00;99.90
41262;DHT22;29629;52.532;13.352;2024-01-07T08:33:48;-0.10;99.90
41262;DHT22;29629;52.532;13.352;2024-01-07T08:36:15;0.10;99.90
41262;DHT22;29629;52.532;13.352;2024-01-07T08:38:42;0.10;99.90
41262;DHT22;29629;52.532;13.352;2024-01-07T08:41:09;0.20;99.90
41262;DHT22;29629;52.532;13.352;2024-01-07T08:43:38;0.20;99.90
41262;DHT22;29629;52.532;13.352;2024-01-07T08:46:05;0.20;99.90
41262;DHT22;29629;52.532;13.352;2024-01-07T08:48:32;0.20;99.90
41262;DHT22;29629;52.532;13.352;2024-01-07T08:50:59;0.30;99.90
41262;DHT22;29629;52.532;13.352;2024-01-07T08:53:26;0.30;99.90
41262;DHT22;29629;52.532;13.352;2024-01-07T08:55:53;0.40;99.90
41262;DHT22;29629;52.532;13.352;2024-01-07T08:58:20;0.40;99.90
41262;DHT22;29629;52.532;13.352;2024-01-07T09:00:48;0.40;99.90
41262;DHT22;29629;52.532;13.352;2024-01-07T09:03:15;0.40;99.90
41262;DHT22;29629;52.532;13.352;2024-01-07T09:05:43;0.50;99.90
41262;DHT22;29629;52.532;13.352;2024-01-07T09:08:10;0.60;99.90
41262;DHT22;29629;52.532;13.352;2024-01-07T09:10:40;0.60;99.90
41262;DHT22;29629;52.532;13.352;2024-01-07T09:13:07;0.60;99.90
41262;DHT22;29629;52.532;13.352;2024-01-07T09:15:34;0.60;99.90
41262;DHT22;29629;52.532;13.352;2024-01-07T09:18:02;0.60;99.90
41262;DHT22;29629;52.532;13.352;2024-01-07T09:20:29;0.70;99.90
41262;DHT22;29629;52.532;13.352;2024-01-07T09:22:57;0.80;99.90
41262;DHT22;29629;52.532;13.352;2024-01-07T09:25:24;0.80;99.90
41262;DHT22;29629;52.532;13.352;2024-01-07T09:27:51;0.80;99.90
41262;DHT22;29629;52.532;13.352;2024-01-07T09:30:18;0.70;99.90
41262;DHT22;29629;52.532;13.352;2024-01-07T09:32:45;0.80;99.90
41262;DHT22;29629;52.532;13.352;2024-01-07T09:35:14;0.80;99.90
41262;DHT22;29629;52.532;13.352;2024-01-07T09:37:41;0.70;99.90
41262;DHT22;29629;52.532;13.352;2024-01-07T09:40:09;0.70;99.90
41262;DHT22;29629;52.532;13.352;2024-01-07T09:42:36;0.70;99.90
41262;DHT22;29629;52.532;13.352;2024-01-07T09:45:04;0.90;99.90
41262;DHT22;29629;52.532;13.352;2024-01-07T09:47:31;0.90;99.90
41262;DHT22;29629;52.532;13.352;2024-01-07T09:49:58;0.80;99.90
41262;DHT22;29629;52.532;13.352;2024-01-07T09:52:26;0.90;99.90
41262;DHT22;29629;52.532;13.352;2024-01-07T09:54:58;1.00;99.90
41262;DHT22;29629;52.532;13.352;2024-01-07T09:57:26;0.90;99.90
41262;DHT22;29629;52.532;13.352;2024-01-07T09:59:53;0.80;99.90
41262;DHT22;29629;52.532;13.352;2024-01-07T10:02:20;0.90;99.90
41262;DHT22;29629;52.532;13.352;2024-01-07T10:04:48;0.80;99.90
41262;DHT22;29629;52.532;13.352;2024-01-07T10:07:15;0.90;99.90
41262;DHT22;29629;52.532;13.352;2024-01-07T10:09:44;1.00;99.90
41262;DHT22;29629;52.532;13.352;2024-01-07T10:12:12;0.90;99.90
41262;DHT22;29629;52.532;13.352;2024-01-07T10:14:39;1.00;99.90
41262;DHT22;29629;52.532;13.352;2024-01-07T10:17:14;0.90;99.90
41262;DHT22;29629;52.532;13.352;2024-01-07T10:19:43;0.90;99.90
41262;DHT22;29629;52.532;13.352;2024-01-07T10:22:12;1.00;99.90
41262;DHT22;29629;52.532;13.352;2024-01-07T10:24:40;0.90;99.90
41262;DHT22;29629;52.532;13.352;2024-01-07T10:27:10;1.00;99.90
41262;DHT22;29629;52.532;13.352;2024-01-07T10:29:38;0.90;99.90
41262;DHT22;29629;52.532;13.352;2024-01-07T10:32:05;0.90;99.90
41262;DHT22;29629;52.532;13.352;2024-01-07T10:34:33;1.00;99.90
41262;DHT22;29629;52.532;13.352;2024-01-07T10:37:01;1.10;99.90
41262;DHT22;29629;52.532;13.352;2024-01-07T10:39:28;1.10;99.90
41262;DHT22;29629;52.532;13.352;2024-01-07T10:41:56;1.00;99.90
41262;DHT22;29629;52.532;13.352;2024-01-07T10:44:26;1.10;99.90
41262;DHT22;29629;52.532;13.352;2024-01-07T10:46:54;1.10;99.90
41262;DHT22;29629;52.532;13.352;2024-01-07T10:49:23;1.10;99.90
41262;DHT22;29629;52.532;13.352;2024-01-07T10:52:02;1.20;99.90
41262;DHT22;29629;52.532;13.352;2024-01-07T10:54:31;1.20;99.90
41262;DHT22;29629;52.532;13.352;2024-01-07T10:56:59;1.10;99.90
41262;DHT22;29629;52.532;13.352;2024-01-07T10:59:29;1.10;99.90
41262;DHT22;29629;52.532;13.352;2024-01-07T11:01:57;1.10;99.90
41262;DHT22;29629;52.532;13.352;2024-01-07T11:04:30;1.20;99.90
41262;DHT22;29629;52.532;13.352;2024-01-07T11:07:05;1.20;99.90
41262;DHT22;29629;52.532;13.352;2024-01-07T11:09:38;1.20;99.90
41262;DHT22;29629;52.532;13.352;2024-01-07T11:12:06;1.30;99.90
41262;DHT22;29629;52.532;13.352;2024-01-07T11:14:39;1.30;99.90
41262;DHT22;29629;52.532;13.352;2024-01-07T11:17:07;1.30;99.90
41262;DHT22;29629;52.532;13.352;2024-01-07T11:19:35;1.40;99.90
41262;DHT22;29629;52.532;13.352;2024-01-07T11:22:21;1.40;99.90
41262;DHT22;29629;52.532;13.352;2024-01-07T11:24:50;1.40;99.90
41262;DHT22;29629;52.532;13.352;2024-01-07T11:27:17;1.40;99.90
41262;DHT22;29629;52.532;13.352;2024-01-07T11:29:53;1.40;99.90
41262;DHT22;29629;52.532;13.352;2024-01-07T11:32:22;1.30;99.90
41262;DHT22;29629;52.532;13.352;2024-01-07T11:34:51;1.40;99.90
41262;DHT22;29629;52.532;13.352;2024-01-07T11:37:19;1.40;99.90
41262;DHT22;29629;52.532;13.352;2024-01-07T11:39:48;1.40;99.90
41262;DHT22;29629;52.532;13.352;2024-01-07T11:42:15;1.40;99.90
41262;DHT22;29629;52.532;13.352;2024-01-07T11:44:47;1.50;99.90
41262;DHT22;29629;52.532;13.352;2024-01-07T11:47:14;1.50;99.90
41262;DHT22;29629;52.532;13.352;2024-01-07T11:49:41;1.40;99.90
41262;DHT22;29629;52.532;13.352;2024-01-07T11:52:08;1.50;99.90
41262;DHT22;29629;52.532;13.352;2024-01-07T11:54:36;1.50;99.90
41262;DHT22;29629;52.532;13.352;2024-01-07T11:57:03;1.50;99.90
41262;DHT22;29629;52.532;13.352;2024-01-07T11:59:31;1.50;99.90
41262;DHT22;29629;52.532;13.352;2024-01-07T12:01:59;1.50;99.90
41262;DHT22;29629;52.532;13.352;2024-01-07T12:04:27;1.40;99.90
41262;DHT22;29629;52.532;13.352;2024-01-07T12:06:54;1.40;99.90
41262;DHT22;29629;52.532;13.352;2024-01-07T12:09:21;1.30;99.90
41262;DHT22;29629;52.532;13.352;2024-01-07T12:11:48;1.40;99.90
41262;DHT22;29629;52.532;13.352;2024-01-07T12:14:15;1.40;99.90
41262;DHT22;29629;52.532;13.352;2024-01-07T12:16:42;1.40;99.90
41262;DHT22;29629;52.532;13.352;2024-01-07T12:19:11;1.40;99.90
41262;DHT22;29629;52.532;13.352;2024-01-07T12:21:38;1.50;99.90
41262;DHT22;29629;52.532;13.352;2024-01-07T12:24:06;1.50;99.90
41262;DHT22;29629;52.532;13.352;2024-01-07T12:26:33;1.50;99.90
41262;DHT22;29629;52.532;13.352;2024-01-07T12:29:00;1.50;99.90
41262;DHT22;29629;52.532;13.352;2024-01-07T12:31:30;1.50;99.90
41262;DHT22;29629;52.532;13.352;2024-01-07T12:33:57;1.70;99.90
41262;DHT22;29629;52.532;13.352;2024-01-07T12:36:26;1.60;99.90
41262;DHT22;29629;52.532;13.352;2024-01-07T12:38:53;1.50;99.90
41262;DHT22;29629;52.532;13.352;2024-01-07T12:41:21;1.60;99.90
41262;DHT22;29629;52.532;13.352;2024-01-07T12:43:48;1.60;99.90
41262;DHT22;29629;52.532;13.352;2024-01-07T12:46:15;1.60;99.90
41262;DHT22;29629;52.532;13.352;2024-01-07T12:48:42;1.60;99.90
41262;DHT22;29629;52.532;13.352;2024-01-07T12:51:09;1.70;99.90
41262;DHT22;29629;52.532;13.352;2024-01-07T12:53:38;1.60;99.90
41262;DHT22;29629;52.532;13.352;2024-01-07T12:56:05;1.70;99.90
41262;DHT22;29629;52.532;13.352;2024-01-07T12:58:32;1.70;99.90
41262;DHT22;29629;52.532;13.352;2024-01-07T13:00:59;1.60;99.90
41262;DHT22;29629;52.532;13.352;2024-01-07T13:03:26;1.70;99.90
41262;DHT22;29629;52.532;13.352;2024-01-07T13:05:53;1.70;99.90
41262;DHT22;29629;52.532;13.352;2024-01-07T13:08:20;1.70;99.90
41262;DHT22;29629;52.532;13.352;2024-01-07T13:10:52;1.70;99.90
41262;DHT22;29629;52.532;13.352;2024-01-07T13:13:20;1.70;99.90
41262;DHT22;29629;52.532;13.352;2024-01-07T13:15:47;1.70;99.90
41262;DHT22;29629;52.532;13.352;2024-01-07T13:18:16;1.70;99.90
41262;DHT22;29629;52.532;13.352;2024-01-07T13:20:43;1.70;99.90
41262;DHT22;29629;52.532;13.352;2024-01-07T13:23:10;1.70;99.90
41262;DHT22;29629;52.532;13.352;2024-01-07T13:25:37;1.80;99.90
41262;DHT22;29629;52.532;13.352;2024-01-07T13:28:05;1.80;99.90
41262;DHT22;29629;52.532;13.352;2024-01-07T13:30:36;1.80;99.90
41262;DHT22;29629;52.532;13.352;2024-01-07T13:33:03;1.80;99.90
41262;DHT22;29629;52.532;13.352;2024-01-07T13:35:30;1.80;99.90
41262;DHT22;29629;52.532;13.352;2024-01-07T13:37:57;1.80;99.90
41262;DHT22;29629;52.532;13.352;2024-01-07T13:40:24;1.80;99.90
41262;DHT22;29629;52.532;13.352;2024-01-07T13:42:52;1.80;99.90
41262;DHT22;29629;52.532;13.352;2024-01-07T13:45:21;1.80;99.90
41262;DHT22;29629;52.532;13.352;2024-01-07T13:47:48;1.80;99.90
41262;DHT22;29629;52.532;13.352;2024-01-07T13:50:15;1.80;99.90
41262;DHT22;29629;52.532;13.352;2024-01-07T13:52:42;1.80;99.90
41262;DHT22;29629;52.532;13.352;2024-01-07T13:55:09;1.80;99.90
41262;DHT22;29629;52.532;13.352;2024-01-07T13:57:36;1.70;99.90
41262;DHT22;29629;52.532;13.352;2024-01-07T14:00:05;1.80;99.90
41262;DHT22;29629;52.532;13.352;2024-01-07T14:02:37;1.70;99.90
41262;DHT22;29629;52.532;13.352;2024-01-07T14:05:05;1.80;99.90
41262;DHT22;29629;52.532;13.352;2024-01-07T14:07:34;1.80;99.90
41262;DHT22;29629;52.532;13.352;2024-01-07T14:10:01;1.80;99.90
41262;DHT22;29629;52.532;13.352;2024-01-07T14:12:29;1.80;99.90
41262;DHT22;29629;52.532;13.352;2024-01-07T14:14:56;1.80;99.90
41262;DHT22;29629;52.532;13.352;2024-01-07T14:17:24;1.90;99.90
41262;DHT22;29629;52.532;13.352;2024-01-07T14:19:52;1.80;99.90
41262;DHT22;29629;52.532;13.352;2024-01-07T14:22:19;1.70;99.90
41262;DHT22;29629;52.532;13.352;2024-01-07T14:24:47;1.80;99.90
41262;DHT22;29629;52.532;13.352;2024-01-07T14:27:14;1.80;99.90
41262;DHT22;29629;52.532;13.352;2024-01-07T14:29:41;1.80;99.90
41262;DHT22;29629;52.532;13.352;2024-01-07T14:32:09;1.70;99.90
41262;DHT22;29629;52.532;13.352;2024-01-07T14:34:38;1.70;99.90
41262;DHT22;29629;52.532;13.352;2024-01-07T14:37:08;1.80;99.90
41262;DHT22;29629;52.532;13.352;2024-01-07T14:39:36;1.80;99.90
41262;DHT22;29629;52.532;13.352;2024-01-07T14:42:03;1.70;99.90
41262;DHT22;29629;52.532;13.352;2024-01-07T14:44:30;1.80;99.90
41262;DHT22;29629;52.532;13.352;2024-01-07T14:46:57;1.80;99.90
41262;DHT22;29629;52.532;13.352;2024-01-07T14:49:24;1.70;99.90
41262;DHT22;29629;52.532;13.352;2024-01-07T14:51:51;1.80;99.90
41262;DHT22;29629;52.532;13.352;2024-01-07T14:54:19;1.90;99.90
41262;DHT22;29629;52.532;13.352;2024-01-07T14:56:46;1.70;99.90
41262;DHT22;29629;52.532;13.352;2024-01-07T14:59:13;1.80;99.90
41262;DHT22;29629;52.532;13.352;2024-01-07T15:01:40;1.70;99.90
41262;DHT22;29629;52.532;13.352;2024-01-07T15:04:09;1.70;99.90
41262;DHT22;29629;52.532;13.352;2024-01-07T15:06:40;1.70;99.90
41262;DHT22;29629;52.532;13.352;2024-01-07T15:09:07;1.70;99.90
41262;DHT22;29629;52.532;13.352;2024-01-07T15:11:36;1.70;99.90
41262;DHT22;29629;52.532;13.352;2024-01-07T15:14:04;1.70;99.90
41262;DHT22;29629;52.532;13.352;2024-01-07T15:16:34;1.70;99.90
41262;DHT22;29629;52.532;13.352;2024-01-07T15:19:01;1.70;99.90
41262;DHT22;29629;52.532;13.352;2024-01-07T15:21:28;1.70;99.90
41262;DHT22;29629;52.532;13.352;2024-01-07T15:23:55;1.60;99.90
41262;DHT22;29629;52.532;13.352;2024-01-07T15:26:22;1.60;99.90